Time;durP1;ratioP1;P1;durP2;ratioP2;P2;SDS_P1;SDS_P2;PMS_P1;PMS_P2;Temp;Humidity;BMP_temperature;BMP_pressure;BME280_temperature;BME280_humidity;BME280_pressure;Samples;Min_cycle;Max_cycle;Signal;HPM_P1;HPM_P2
2024/02/25 00:01:12;;;;;;;;;;;;;;;11.69;100.00;100617.19;4985160;28;19921;-69
2024/02/25 00:03:37;;;;;;;;;;;;;;;11.64;100.00;100617.91;4993675;28;19944;-74
2024/02/25 00:06:03;;;;;;;;;;;;;;;11.60;100.00;100617.75;4993863;28;20408;-70
2024/02/25 00:08:28;;;;;;;;;;;;;;;11.63;100.00;100604.94;4993542;28;19980;-69
2024/02/25 00:10:53;;;;;;;;;;;;;;;11.62;100.00;100604.03;4994431;28;19914;-69
2024/02/25 00:13:19;;;;;;;;;;;;;;;11.64;100.00;100602.41;4993259;28;19914;-69
2024/02/25 00:15:44;;;;;;;;;;;;;;;11.61;100.00;100606.56;4993359;28;19922;-69
2024/02/25 00:18:09;;;;;;;;;;;;;;;11.69;100.00;100601.66;4993024;28;19924;-70
2024/02/25 00:20:34;;;;;;;;;;;;;;;11.69;100.00;100605.16;4993348;28;19925;-69
2024/02/25 00:23:00;;;;;;;;;;;;;;;11.69;100.00;100593.91;4993184;28;19918;-69
2024/02/25 00:25:25;;;;;;;;;;;;;;;11.65;100.00;100601.56;4993072;28;19999;-70
2024/02/25 00:27:51;;;;;;;;;;;;;;;11.63;100.00;100600.63;4976964;28;19913;-69
2024/02/25 00:30:16;;;;;;;;;;;;;;;11.63;100.00;100612.69;4993340;28;19914;-67
2024/02/25 00:32:41;;;;;;;;;;;;;;;11.60;100.00;100609.97;4993124;28;19924;-69
2024/02/25 00:35:07;;;;;;;;;;;;;;;11.59;100.00;100610.81;4981406;28;19925;-71
2024/02/25 00:37:32;;;;;;;;;;;;;;;11.57;100.00;100608.16;4993021;28;19914;-69
2024/02/25 00:39:58;;;;;;;;;;;;;;;11.56;100.00;100601.22;4993494;28;19913;-68
2024/02/25 00:42:23;;;;;;;;;;;;;;;11.54;100.00;100596.84;4992764;28;19913;-69
2024/02/25 00:44:49;;;;;;;;;;;;;;;11.55;100.00;100599.50;4992579;28;20036;-68
2024/02/25 00:47:17;;;;;;;;;;;;;;;11.55;100.00;100607.25;4992852;28;19952;-69
2024/02/25 00:49:42;;;;;;;;;;;;;;;11.55;100.00;100602.09;4993449;28;19914;-69
2024/02/25 00:52:08;;;;;;;;;;;;;;;11.56;100.00;100595.19;4992702;28;20390;-68
2024/02/25 00:54:33;;;;;;;;;;;;;;;11.56;100.00;100593.47;4992961;28;19925;-68
2024/02/25 00:56:58;;;;;;;;;;;;;;;11.56;100.00;100597.78;4992545;28;19964;-68
2024/02/25 00:59:24;;;;;;;;;;;;;;;11.61;100.00;100593.66;4992502;28;19925;-69
2024/02/25 01:01:50;;;;;;;;;;;;;;;11.65;100.00;100596.41;4992924;28;19914;-69
2024/02/25 01:04:18;;;;;;;;;;;;;;;11.69;100.00;100592.22;4981207;28;19975;-69
2024/02/25 01:06:43;;;;;;;;;;;;;;;11.67;100.00;100591.28;4992588;28;19918;-69
2024/02/25 01:09:10;;;;;;;;;;;;;;;11.68;100.00;100599.94;4992330;28;19964;-67
2024/02/25 01:11:36;;;;;;;;;;;;;;;11.69;100.00;100604.25;4992015;28;19918;-70
2024/02/25 01:14:01;;;;;;;;;;;;;;;11.70;100.00;100598.25;4992294;28;19917;-69
2024/02/25 01:16:27;;;;;;;;;;;;;;;11.68;100.00;100602.53;4969033;28;19944;-70
2024/02/25 01:18:52;;;;;;;;;;;;;;;11.73;100.00;100593.19;4992160;28;20041;-67
2024/02/25 01:21:17;;;;;;;;;;;;;;;11.77;100.00;100592.47;4992063;28;19953;-69
2024/02/25 01:23:43;;;;;;;;;;;;;;;11.65;100.00;100591.22;4991957;28;19918;-68
2024/02/25 01:26:10;;;;;;;;;;;;;;;11.58;100.00;100597.00;4991967;28;19975;-71
2024/02/25 01:28:35;;;;;;;;;;;;;;;11.60;100.00;100602.22;4991876;28;20017;-70
2024/02/25 01:31:01;;;;;;;;;;;;;;;11.54;100.00;100600.31;4991798;28;20021;-67
2024/02/25 01:33:26;;;;;;;;;;;;;;;11.57;100.00;100596.97;4989980;28;20020;-70
2024/02/25 01:35:51;;;;;;;;;;;;;;;11.53;100.00;100597.69;4988472;28;19952;-67
2024/02/25 01:38:17;;;;;;;;;;;;;;;11.54;100.00;100602.00;4991166;28;20075;-67
2024/02/25 01:40:43;;;;;;;;;;;;;;;11.52;100.00;100601.09;4990888;28;20324;-72
2024/02/25 01:43:09;;;;;;;;;;;;;;;11.41;100.00;100604.16;4991790;28;20442;-70
2024/02/25 01:45:35;;;;;;;;;;;;;;;11.36;100.00;100597.09;4992025;28;19921;-70
2024/02/25 01:48:00;;;;;;;;;;;;;;;11.21;100.00;100602.56;4991573;28;19914;-71
2024/02/25 01:50:27;;;;;;;;;;;;;;;11.20;100.00;100595.66;4991495;28;19913;-71
2024/02/25 01:52:54;;;;;;;;;;;;;;;11.27;100.00;100603.66;4957601;28;19924;-70
2024/02/25 01:55:22;;;;;;;;;;;;;;;11.37;100.00;100598.84;4991910;28;19918;-70
2024/02/25 01:57:48;;;;;;;;;;;;;;;11.43;100.00;100602.53;4991400;28;19914;-70
2024/02/25 02:00:16;;;;;;;;;;;;;;;11.46;100.00;100594.88;4991490;28;19921;-69
2024/02/25 02:02:41;;;;;;;;;;;;;;;11.47;100.00;100603.50;4990500;28;19963;-71
2024/02/25 02:05:08;;;;;;;;;;;;;;;11.50;100.00;100598.44;4991631;28;20373;-70
2024/02/25 02:07:33;;;;;;;;;;;;;;;11.50;100.00;100603.59;4991315;28;19917;-70
2024/02/25 02:09:59;;;;;;;;;;;;;;;11.43;100.00;100599.94;4991131;28;20463;-71
2024/02/25 02:12:24;;;;;;;;;;;;;;;11.11;100.00;100542.78;4991753;28;19917;-70
2024/02/25 02:14:50;;;;;;;;;;;;;;;11.52;100.00;100601.97;4991197;28;19979;-69
2024/02/25 02:17:15;;;;;;;;;;;;;;;11.56;100.00;100600.38;4989012;28;19921;-70
2024/02/25 02:19:46;;;;;;;;;;;;;;;11.55;100.00;100606.34;4991735;28;19917;-70
2024/02/25 02:22:12;;;;;;;;;;;;;;;11.52;100.00;100604.56;4991481;28;19925;-67
2024/02/25 02:24:37;;;;;;;;;;;;;;;11.56;100.00;100597.78;4991809;28;19914;-71
2024/02/25 02:27:02;;;;;;;;;;;;;;;11.60;100.00;100604.81;4991386;28;19929;-69
2024/02/25 02:29:28;;;;;;;;;;;;;;;11.60;100.00;100602.22;4990935;28;19913;-70
2024/02/25 02:31:56;;;;;;;;;;;;;;;11.62;100.00;100601.44;4990695;28;19925;-71
2024/02/25 02:34:22;;;;;;;;;;;;;;;11.58;100.00;100601.31;4990739;28;19920;-67
2024/02/25 02:36:49;;;;;;;;;;;;;;;11.55;100.00;100599.50;4991970;28;20452;-70
2024/02/25 02:39:14;;;;;;;;;;;;;;;11.56;100.00;100600.38;4991037;28;19972;-70
2024/02/25 02:41:40;;;;;;;;;;;;;;;11.50;100.00;100603.59;4991071;28;19917;-71
2024/02/25 02:44:06;;;;;;;;;;;;;;;11.23;100.00;100614.72;4990587;28;19921;-70
2024/02/25 02:46:37;;;;;;;;;;;;;;;11.16;100.00;100617.91;4991405;28;19922;-68
2024/02/25 02:49:02;;;;;;;;;;;;;;;11.11;100.00;100609.97;4990504;28;19999;-74
2024/02/25 02:51:27;;;;;;;;;;;;;;;11.08;100.00;100616.72;4990565;28;19960;-71
2024/02/25 02:53:53;;;;;;;;;;;;;;;11.02;100.00;100616.53;4990251;28;20000;-69
2024/02/25 02:56:18;;;;;;;;;;;;;;;10.98;100.00;100613.81;4991493;28;19918;-69
2024/02/25 02:58:48;;;;;;;;;;;;;;;11.06;100.00;100620.97;4990745;28;20002;-69
2024/02/25 03:01:14;;;;;;;;;;;;;;;11.08;100.00;100630.56;4990550;28;20409;-69
2024/02/25 03:03:39;;;;;;;;;;;;;;;11.13;100.00;100633.31;4990317;28;20004;-69
2024/02/25 03:06:04;;;;;;;;;;;;;;;11.12;100.00;100635.00;4990391;28;19917;-73
2024/02/25 03:08:29;;;;;;;;;;;;;;;10.99;100.00;100630.19;4990490;28;19913;-68
2024/02/25 03:10:55;;;;;;;;;;;;;;;10.90;100.00;100640.19;4990778;28;20009;-70
2024/02/25 03:13:20;;;;;;;;;;;;;;;10.88;100.00;100645.28;4992124;28;19913;-69
2024/02/25 03:15:45;;;;;;;;;;;;;;;10.79;100.00;100652.66;4995255;28;19921;-69
2024/02/25 03:18:11;;;;;;;;;;;;;;;10.67;100.00;100650.50;4994565;28;19921;-67
2024/02/25 03:20:36;;;;;;;;;;;;;;;10.58;100.00;100652.72;4994089;28;19980;-68
2024/02/25 03:23:01;;;;;;;;;;;;;;;10.54;100.00;100638.78;4994029;28;19917;-70
2024/02/25 03:25:28;;;;;;;;;;;;;;;10.47;100.00;100642.84;4994058;28;20470;-69
2024/02/25 03:27:53;;;;;;;;;;;;;;;10.30;100.00;100639.53;4994393;28;19957;-69
2024/02/25 03:30:19;;;;;;;;;;;;;;;10.27;100.00;100638.53;4994881;28;19955;-68
2024/02/25 03:32:45;;;;;;;;;;;;;;;10.19;100.00;100639.13;4993966;28;19916;-69
2024/02/25 03:35:10;;;;;;;;;;;;;;;10.16;100.00;100641.56;4994135;28;20288;-68
2024/02/25 03:37:35;;;;;;;;;;;;;;;10.20;100.00;100634.81;4993621;28;20345;-69
2024/02/25 03:40:01;;;;;;;;;;;;;;;10.11;100.00;100631.88;4997836;28;19921;-68
2024/02/25 03:42:26;;;;;;;;;;;;;;;10.04;100.00;100621.31;4993637;28;20009;-68
2024/02/25 03:44:51;;;;;;;;;;;;;;;9.97;100.00;100623.53;4993918;28;20020;-69
2024/02/25 03:47:17;;;;;;;;;;;;;;;9.74;100.00;100625.16;4993943;28;19921;-68
2024/02/25 03:49:42;;;;;;;;;;;;;;;9.54;100.00;100628.66;4994364;28;19968;-68
2024/02/25 03:52:08;;;;;;;;;;;;;;;9.41;100.00;100631.50;4993270;28;20334;-68
2024/02/25 03:54:34;;;;;;;;;;;;;;;9.09;100.00;100630.06;4993788;28;20337;-68
2024/02/25 03:56:59;;;;;;;;;;;;;;;9.12;100.00;100628.50;4993735;28;19924;-69
2024/02/25 03:59:24;;;;;;;;;;;;;;;9.16;100.00;100630.41;4993767;28;20011;-68
2024/02/25 04:01:50;;;;;;;;;;;;;;;9.18;100.00;100626.22;4993401;28;19917;-68
2024/02/25 04:04:15;;;;;;;;;;;;;;;9.16;100.00;100627.81;4993521;28;20032;-69
2024/02/25 04:06:41;;;;;;;;;;;;;;;9.28;100.00;100632.63;4993248;28;19928;-69
2024/02/25 04:09:06;;;;;;;;;;;;;;;9.31;100.00;100639.63;4993607;28;20336;-71
2024/02/25 04:11:31;;;;;;;;;;;;;;;9.39;100.00;100640.84;4993549;28;19917;-69
2024/02/25 04:13:56;;;;;;;;;;;;;;;9.45;100.00;100640.25;4994019;28;19917;-68
2024/02/25 04:16:22;;;;;;;;;;;;;;;9.59;100.00;100640.84;4993491;28;19917;-73
2024/02/25 04:18:47;;;;;;;;;;;;;;;9.55;100.00;100640.69;4992999;28;19957;-71
2024/02/25 04:21:12;;;;;;;;;;;;;;;9.49;100.00;100637.84;4992977;28;19917;-73
2024/02/25 04:23:38;;;;;;;;;;;;;;;9.40;100.00;100647.78;4993164;28;19957;-70
2024/02/25 04:26:03;;;;;;;;;;;;;;;9.35;100.00;100649.25;4992427;28;19940;-70
2024/02/25 04:28:29;;;;;;;;;;;;;;;9.26;100.00;100654.00;4992938;28;19917;-69
2024/02/25 04:30:54;;;;;;;;;;;;;;;9.16;100.00;100643.28;4992947;28;20312;-70
2024/02/25 04:33:19;;;;;;;;;;;;;;;9.05;100.00;100647.06;4993128;28;20004;-69
2024/02/25 04:35:45;;;;;;;;;;;;;;;8.98;100.00;100647.59;4993488;28;20016;-68
2024/02/25 04:38:12;;;;;;;;;;;;;;;8.98;100.00;100653.59;4991298;28;19965;-70
2024/02/25 04:40:38;;;;;;;;;;;;;;;9.03;100.00;100643.53;4992689;28;20437;-70
2024/02/25 04:43:03;;;;;;;;;;;;;;;9.04;100.00;100637.56;4992837;28;19917;-69
2024/02/25 04:45:29;;;;;;;;;;;;;;;9.04;100.00;100638.44;4993008;28;19940;-68
2024/02/25 04:47:55;;;;;;;;;;;;;;;9.03;100.00;100631.56;4992659;28;20380;-69
2024/02/25 04:50:20;;;;;;;;;;;;;;;8.87;100.00;100639.34;4992899;28;19924;-70
2024/02/25 04:52:45;;;;;;;;;;;;;;;8.69;100.00;100639.41;4992839;28;19922;-70
2024/02/25 04:55:11;;;;;;;;;;;;;;;8.71;100.00;100633.50;4992786;28;20004;-69
2024/02/25 04:57:37;;;;;;;;;;;;;;;8.59;100.00;100638.06;4992716;28;19914;-71
2024/02/25 05:00:22;;;;;;;;;;;;;;;8.54;100.00;100650.72;4985285;28;20369;-71
2024/02/25 05:02:48;;;;;;;;;;;;;;;8.51;100.00;100644.53;4965331;28;19925;-68
2024/02/25 05:05:13;;;;;;;;;;;;;;;8.38;100.00;100656.75;4958490;28;20463;-69
2024/02/25 05:07:40;;;;;;;;;;;;;;;8.34;100.00;100652.28;4964507;28;19957;-70
2024/02/25 05:10:07;;;;;;;;;;;;;;;8.50;100.00;100650.47;4942893;29;20425;-69
2024/02/25 05:12:34;;;;;;;;;;;;;;;8.51;100.00;100658.28;4960095;28;19926;-71
2024/02/25 05:14:59;;;;;;;;;;;;;;;8.48;100.00;100664.97;4959541;28;19925;-69
2024/02/25 05:17:25;;;;;;;;;;;;;;;8.49;100.00;100665.03;4962376;28;19957;-69
2024/02/25 05:19:51;;;;;;;;;;;;;;;8.54;100.00;100662.69;4960128;28;19969;-68
2024/02/25 05:22:16;;;;;;;;;;;;;;;8.66;100.00;100659.81;4961057;28;19915;-68
2024/02/25 05:24:41;;;;;;;;;;;;;;;8.81;100.00;100652.84;4959970;28;19921;-68
2024/02/25 05:27:07;;;;;;;;;;;;;;;8.89;100.00;100659.22;4957546;28;19961;-70
2024/02/25 05:29:32;;;;;;;;;;;;;;;8.85;100.00;100652.16;4964495;28;20012;-69
2024/02/25 05:31:58;;;;;;;;;;;;;;;8.84;100.00;100650.41;4957650;28;19980;-70
2024/02/25 05:34:23;;;;;;;;;;;;;;;8.84;100.00;100655.53;4982856;28;19933;-69
2024/02/25 05:36:48;;;;;;;;;;;;;;;8.93;100.00;100659.38;4991701;28;19952;-68
2024/02/25 05:39:14;;;;;;;;;;;;;;;8.95;100.00;100674.09;4992332;28;19914;-70
2024/02/25 05:41:39;;;;;;;;;;;;;;;9.03;100.00;100672.75;4991957;28;19921;-69
2024/02/25 05:44:05;;;;;;;;;;;;;;;9.03;100.00;100677.00;4991769;28;19977;-69
2024/02/25 05:46:30;;;;;;;;;;;;;;;9.00;100.00;100676.88;4992791;28;20401;-67
2024/02/25 05:48:55;;;;;;;;;;;;;;;8.90;100.00;100676.44;4991556;28;19924;-68
2024/02/25 05:51:21;;;;;;;;;;;;;;;8.82;100.00;100674.31;4991684;28;20004;-68
2024/02/25 05:53:47;;;;;;;;;;;;;;;8.62;100.00;100674.22;4991942;28;20008;-68
2024/02/25 05:56:13;;;;;;;;;;;;;;;8.46;100.00;100666.56;4990234;28;19918;-67
2024/02/25 05:58:38;;;;;;;;;;;;;;;8.54;100.00;100668.72;4991539;28;19972;-68
2024/02/25 06:01:03;;;;;;;;;;;;;;;8.60;100.00;100674.97;4992436;28;19920;-74
2024/02/25 06:03:29;;;;;;;;;;;;;;;8.66;100.00;100664.97;4990273;28;19913;-73
2024/02/25 06:05:57;;;;;;;;;;;;;;;8.65;100.00;100658.94;4991080;28;20009;-69
2024/02/25 06:08:22;;;;;;;;;;;;;;;8.71;100.00;100666.97;4991342;28;19945;-70
2024/02/25 06:10:48;;;;;;;;;;;;;;;8.73;100.00;100657.63;4991409;28;20384;-69
2024/02/25 06:13:13;;;;;;;;;;;;;;;8.79;100.00;100667.31;4990990;28;19918;-69
2024/02/25 06:15:38;;;;;;;;;;;;;;;8.94;100.00;100668.88;4990933;28;19921;-68
2024/02/25 06:18:04;;;;;;;;;;;;;;;9.07;100.00;100664.34;4990522;28;19925;-72
2024/02/25 06:20:29;;;;;;;;;;;;;;;9.15;100.00;100667.28;4991063;28;19922;-71
2024/02/25 06:22:54;;;;;;;;;;;;;;;9.31;100.00;100668.84;4991236;28;19936;-69
2024/02/25 06:25:20;;;;;;;;;;;;;;;9.42;100.00;100671.03;4991449;28;20004;-68
2024/02/25 06:27:45;;;;;;;;;;;;;;;9.55;100.00;100675.91;4990637;28;19909;-69
2024/02/25 06:30:11;;;;;;;;;;;;;;;9.62;100.00;100677.06;4990837;28;19922;-68
2024/02/25 06:32:37;;;;;;;;;;;;;;;9.74;100.00;100675.03;4990434;28;20354;-70
2024/02/25 06:35:03;;;;;;;;;;;;;;;9.80;100.00;100669.25;4990299;28;19925;-68
2024/02/25 06:37:31;;;;;;;;;;;;;;;9.68;100.00;100677.34;4991206;28;19916;-68
2024/02/25 06:39:56;;;;;;;;;;;;;;;9.54;100.00;100675.06;4990407;28;19917;-67
2024/02/25 06:42:21;;;;;;;;;;;;;;;9.61;100.00;100678.78;4990815;28;19933;-69
2024/02/25 06:44:47;;;;;;;;;;;;;;;9.63;100.00;100672.00;4990734;28;19925;-67
2024/02/25 06:47:12;;;;;;;;;;;;;;;9.65;100.00;100680.66;4990134;28;19960;-66
2024/02/25 06:49:41;;;;;;;;;;;;;;;9.71;100.00;100670.63;4991289;28;19913;-66
2024/02/25 06:52:07;;;;;;;;;;;;;;;9.84;100.00;100692.69;4990726;28;20013;-66
2024/02/25 06:54:32;;;;;;;;;;;;;;;9.96;100.00;100681.13;4989909;28;20038;-68
2024/02/25 06:56:58;;;;;;;;;;;;;;;10.08;100.00;100676.50;4990785;28;19945;-69
2024/02/25 06:59:23;;;;;;;;;;;;;;;10.15;100.00;100675.03;4991012;28;19914;-67
2024/02/25 07:01:49;;;;;;;;;;;;;;;10.22;100.00;100681.31;4990375;28;19917;-68
2024/02/25 07:04:14;;;;;;;;;;;;;;;10.28;100.00;100685.06;4990423;28;19918;-69
2024/02/25 07:06:39;;;;;;;;;;;;;;;10.38;100.00;100678.63;4990417;28;19957;-72
2024/02/25 07:09:04;;;;;;;;;;;;;;;10.51;100.00;100673.09;4990514;28;19918;-69
2024/02/25 07:11:31;;;;;;;;;;;;;;;10.64;100.00;100678.78;4990553;28;19918;-69
2024/02/25 07:13:56;;;;;;;;;;;;;;;10.73;100.00;100676.56;4990321;28;19921;-69
2024/02/25 07:16:21;;;;;;;;;;;;;;;10.86;100.00;100677.91;4991409;28;19972;-74
2024/02/25 07:18:47;;;;;;;;;;;;;;;10.99;100.00;100668.94;4990533;28;19933;-68
2024/02/25 07:21:14;;;;;;;;;;;;;;;11.15;100.00;100663.56;4990697;28;19953;-69
2024/02/25 07:23:43;;;;;;;;;;;;;;;11.27;100.00;100657.06;4990367;28;19972;-69
2024/02/25 07:26:09;;;;;;;;;;;;;;;11.33;100.00;100659.88;4990221;28;20388;-68
2024/02/25 07:28:34;;;;;;;;;;;;;;;11.42;100.00;100662.78;4990348;28;19956;-69
2024/02/25 07:31:01;;;;;;;;;;;;;;;11.44;100.00;100660.25;4989999;28;20012;-68
2024/02/25 07:33:27;;;;;;;;;;;;;;;11.49;100.00;100667.38;4990337;28;20004;-68
2024/02/25 07:35:52;;;;;;;;;;;;;;;11.59;100.00;100675.44;4991005;28;20589;-67
2024/02/25 07:38:18;;;;;;;;;;;;;;;11.68;100.00;100670.63;4988227;28;19930;-68
2024/02/25 07:40:43;;;;;;;;;;;;;;;11.80;100.00;100673.66;4990028;28;20012;-69
2024/02/25 07:43:08;;;;;;;;;;;;;;;11.81;100.00;100665.06;4989923;28;20008;-67
2024/02/25 07:45:34;;;;;;;;;;;;;;;11.93;100.00;100666.31;4980197;28;19972;-73
2024/02/25 07:47:59;;;;;;;;;;;;;;;12.06;100.00;100659.88;4979469;28;19918;-68
2024/02/25 07:50:24;;;;;;;;;;;;;;;12.13;100.00;100659.25;4991128;28;19967;-67
2024/02/25 07:52:50;;;;;;;;;;;;;;;12.16;100.00;100663.66;4990019;28;20008;-72
2024/02/25 07:55:15;;;;;;;;;;;;;;;12.25;100.00;100667.44;4990011;28;20439;-68
2024/02/25 07:57:41;;;;;;;;;;;;;;;12.27;100.00;100655.44;4989960;28;19918;-69
2024/02/25 08:00:07;;;;;;;;;;;;;;;12.36;100.00;100654.84;4991691;28;20401;-72
2024/02/25 08:02:38;;;;;;;;;;;;;;;12.45;100.00;100654.28;4993480;28;20015;-67
2024/02/25 08:05:05;;;;;;;;;;;;;;;12.52;100.00;100661.38;4993636;28;19917;-71
2024/02/25 08:07:31;;;;;;;;;;;;;;;12.59;100.00;100654.72;4993352;28;19921;-73
2024/02/25 08:09:56;;;;;;;;;;;;;;;12.69;100.00;100659.34;4993634;28;19918;-70
2024/02/25 08:12:21;;;;;;;;;;;;;;;12.75;100.00;100662.13;4993186;28;19913;-69
2024/02/25 08:14:47;;;;;;;;;;;;;;;12.82;100.00;100664.91;4993052;28;19917;-69
2024/02/25 08:17:12;;;;;;;;;;;;;;;12.85;100.00;100655.50;4984362;28;19921;-70
2024/02/25 08:19:39;;;;;;;;;;;;;;;12.87;100.00;100660.75;4997014;28;19921;-68
2024/02/25 08:22:04;;;;;;;;;;;;;;;12.91;100.00;100657.41;4985170;28;20405;-71
2024/02/25 08:24:29;;;;;;;;;;;;;;;12.92;100.00;100659.16;4993378;28;19913;-69
2024/02/25 08:26:55;;;;;;;;;;;;;;;12.99;100.00;100647.28;4993163;28;19918;-69
2024/02/25 08:29:20;;;;;;;;;;;;;;;13.07;100.00;100654.47;4993118;28;19913;-67
2024/02/25 08:31:48;;;;;;;;;;;;;;;13.10;100.00;100645.88;4993270;28;19972;-68
2024/02/25 08:34:14;;;;;;;;;;;;;;;13.19;100.00;100642.69;4992822;28;19953;-69
2024/02/25 08:36:40;;;;;;;;;;;;;;;13.26;100.00;100642.91;4984170;28;19957;-68
2024/02/25 08:39:06;;;;;;;;;;;;;;;13.38;100.00;100644.13;4986870;28;19921;-71
2024/02/25 08:41:31;;;;;;;;;;;;;;;13.43;100.00;100646.03;4992648;28;19920;-69
2024/02/25 08:43:57;;;;;;;;;;;;;;;13.50;100.00;100646.19;4992605;28;19917;-69
2024/02/25 08:46:22;;;;;;;;;;;;;;;13.60;100.00;100648.19;4992765;28;20356;-68
2024/02/25 08:48:47;;;;;;;;;;;;;;;13.67;100.00;100647.53;4992664;28;19922;-67
2024/02/25 08:51:13;;;;;;;;;;;;;;;13.73;100.00;100647.69;4993671;28;19921;-73
2024/02/25 08:53:38;;;;;;;;;;;;;;;13.85;100.00;100639.34;4992659;28;20357;-68
2024/02/25 08:56:04;;;;;;;;;;;;;;;13.93;100.00;100642.13;4992516;28;19913;-70
2024/02/25 08:58:30;;;;;;;;;;;;;;;14.04;100.00;100647.59;4967467;28;19918;-69
2024/02/25 09:00:56;;;;;;;;;;;;;;;14.22;100.00;100652.41;4992567;28;19920;-69
2024/02/25 09:03:21;;;;;;;;;;;;;;;14.34;100.00;100647.50;4984085;28;20377;-68
2024/02/25 09:05:47;;;;;;;;;;;;;;;14.44;100.00;100642.53;4992709;28;19914;-69
2024/02/25 09:08:13;;;;;;;;;;;;;;;14.53;100.00;100643.63;4992481;28;19925;-69
2024/02/25 09:10:38;;;;;;;;;;;;;;;14.51;100.00;100639.25;4991930;28;19910;-69
2024/02/25 09:13:05;;;;;;;;;;;;;;;14.54;100.00;100636.69;4992339;28;20475;-68
2024/02/25 09:15:33;;;;;;;;;;;;;;;14.61;100.00;100627.34;4965970;28;19922;-69
2024/02/25 09:18:03;;;;;;;;;;;;;;;14.66;100.00;100625.75;4992213;28;19921;-69
2024/02/25 09:20:30;;;;;;;;;;;;;;;14.76;100.00;100614.72;4992237;28;19918;-69
2024/02/25 09:22:56;;;;;;;;;;;;;;;14.81;100.00;100601.84;4991121;28;19933;-69
2024/02/25 09:25:22;;;;;;;;;;;;;;;14.84;100.00;100594.97;4989687;28;19918;-72
2024/02/25 09:27:47;;;;;;;;;;;;;;;14.96;100.00;100598.69;4991356;28;19922;-70
2024/02/25 09:30:13;;;;;;;;;;;;;;;15.12;100.00;100612.88;4991363;28;19914;-69
2024/02/25 09:32:39;;;;;;;;;;;;;;;15.25;100.00;100607.06;4992042;28;19920;-69
2024/02/25 09:35:04;;;;;;;;;;;;;;;15.39;100.00;100594.34;4991205;28;19917;-69
2024/02/25 09:37:30;;;;;;;;;;;;;;;15.47;100.00;100590.16;4991187;28;20279;-68
2024/02/25 09:39:55;;;;;;;;;;;;;;;15.49;100.00;100582.41;4990969;28;20016;-68
2024/02/25 09:42:22;;;;;;;;;;;;;;;15.49;100.00;100572.84;4991221;28;20360;-69
2024/02/25 09:44:53;;;;;;;;;;;;;;;15.57;100.00;100577.31;4991420;28;19922;-69
2024/02/25 09:47:19;;;;;;;;;;;;;;;15.63;100.00;100575.69;4972056;28;19917;-71
2024/02/25 09:49:45;;;;;;;;;;;;;;;15.70;100.00;100574.06;4989296;28;19914;-69
2024/02/25 09:52:12;;;;;;;;;;;;;;;15.82;100.00;100573.44;4989095;28;19967;-71
2024/02/25 09:54:37;;;;;;;;;;;;;;;15.95;100.00;100565.00;4987908;28;19975;-70
2024/02/25 09:57:03;;;;;;;;;;;;;;;16.17;100.00;100560.13;4988795;28;19965;-68
2024/02/25 09:59:28;;;;;;;;;;;;;;;16.26;100.00;100551.56;4988779;28;19967;-68
2024/02/25 10:01:53;;;;;;;;;;;;;;;16.36;100.00;100547.38;4988442;28;19975;-70
2024/02/25 10:04:23;;;;;;;;;;;;;;;16.45;100.00;100557.94;4989851;28;20364;-71
2024/02/25 10:06:48;;;;;;;;;;;;;;;16.55;100.00;100549.41;4990086;28;19925;-71
2024/02/25 10:09:14;;;;;;;;;;;;;;;16.71;100.00;100553.09;4989739;28;19918;-70
2024/02/25 10:11:42;;;;;;;;;;;;;;;16.78;100.00;100548.81;4990293;28;19914;-68
2024/02/25 10:14:09;;;;;;;;;;;;;;;16.97;100.00;100552.56;4989226;28;19925;-70
2024/02/25 10:16:34;;;;;;;;;;;;;;;17.14;100.00;100544.94;4990240;28;19921;-69
2024/02/25 10:18:59;;;;;;;;;;;;;;;17.23;98.25;100542.41;4990127;28;20408;-70
2024/02/25 10:21:25;;;;;;;;;;;;;;;17.24;100.00;100541.56;4990406;28;19917;-70
2024/02/25 10:23:54;;;;;;;;;;;;;;;17.27;99.98;100531.16;4989780;28;19918;-71
2024/02/25 10:26:20;;;;;;;;;;;;;;;17.40;100.00;100534.78;4987440;28;19922;-70
2024/02/25 10:28:46;;;;;;;;;;;;;;;17.66;97.30;100533.25;4989798;28;19922;-69
2024/02/25 10:31:15;;;;;;;;;;;;;;;17.77;94.74;100521.19;4990194;28;20016;-69
2024/02/25 10:33:41;;;;;;;;;;;;;;;17.84;93.67;100517.75;4990379;28;19925;-69
2024/02/25 10:36:08;;;;;;;;;;;;;;;17.83;93.30;100510.81;4990217;28;19922;-70
2024/02/25 10:38:40;;;;;;;;;;;;;;;17.87;94.79;100506.44;4988652;28;19920;-67
2024/02/25 10:41:06;;;;;;;;;;;;;;;18.00;92.28;100515.31;4990368;28;19922;-68
2024/02/25 10:43:35;;;;;;;;;;;;;;;18.01;93.18;100504.00;4953833;28;19989;-74
2024/02/25 10:46:06;;;;;;;;;;;;;;;18.07;92.87;100498.81;4947190;28;19918;-69
2024/02/25 10:48:33;;;;;;;;;;;;;;;18.01;92.41;100494.41;4949148;29;19918;-69
2024/02/25 10:50:59;;;;;;;;;;;;;;;17.99;93.85;100505.72;4932571;28;19952;-67
2024/02/25 10:53:28;;;;;;;;;;;;;;;18.04;92.02;100499.63;4949764;28;19914;-69
2024/02/25 10:55:55;;;;;;;;;;;;;;;18.34;91.72;100490.22;4949112;29;19919;-67
2024/02/25 10:58:21;;;;;;;;;;;;;;;18.51;90.73;100490.31;4949016;29;19923;-68
2024/02/25 11:00:48;;;;;;;;;;;;;;;18.51;89.77;100482.47;4948938;29;19925;-71
2024/02/25 11:03:14;;;;;;;;;;;;;;;18.44;89.22;100478.09;4949078;29;19918;-73
2024/02/25 11:05:40;;;;;;;;;;;;;;;18.48;88.91;100471.13;4948727;29;19923;-69
2024/02/25 11:08:09;;;;;;;;;;;;;;;18.75;88.11;100476.50;4949047;29;20795;-71
2024/02/25 11:10:37;;;;;;;;;;;;;;;19.05;88.40;100467.03;4945716;28;19922;-71
2024/02/25 11:13:02;;;;;;;;;;;;;;;19.18;79.85;100467.03;4933034;29;19925;-68
2024/02/25 11:15:28;;;;;;;;;;;;;;;19.20;77.31;100466.16;4948623;29;19918;-68
2024/02/25 11:17:55;;;;;;;;;;;;;;;19.38;76.75;100459.19;4948403;29;20366;-69
2024/02/25 11:20:22;;;;;;;;;;;;;;;19.54;78.90;100444.38;4958647;28;19931;-69
2024/02/25 11:22:49;;;;;;;;;;;;;;;19.66;74.82;100446.94;4987879;28;20068;-68
2024/02/25 11:25:26;;;;;;;;;;;;;;;19.72;72.85;100446.09;4986416;28;20436;-69
2024/02/25 11:27:59;;;;;;;;;;;;;;;19.76;72.38;100444.34;4989954;28;19924;-70
2024/02/25 11:30:36;;;;;;;;;;;;;;;19.83;73.23;100435.63;4988417;28;20004;-70
2024/02/25 11:33:22;;;;;;;;;;;;;;;19.92;72.63;100432.13;4986120;28;19925;-72
2024/02/25 11:35:49;;;;;;;;;;;;;;;19.92;71.24;100419.88;4988029;28;20004;-70
2024/02/25 11:38:14;;;;;;;;;;;;;;;19.92;72.62;100426.88;4990421;28;19917;-73
2024/02/25 11:40:39;;;;;;;;;;;;;;;20.01;74.24;100418.97;4991131;28;19913;-68
2024/02/25 11:43:05;;;;;;;;;;;;;;;20.06;70.63;100421.59;4992972;28;19917;-71
2024/02/25 11:45:31;;;;;;;;;;;;;;;19.98;70.57;100416.38;4993222;28;19918;-70
2024/02/25 11:47:57;;;;;;;;;;;;;;;19.88;71.90;100411.16;4993717;28;19925;-72
2024/02/25 11:50:25;;;;;;;;;;;;;;;19.77;71.57;100407.66;4993574;28;19910;-68
2024/02/25 11:52:57;;;;;;;;;;;;;;;19.88;72.63;100412.91;4993373;28;20623;-70
2024/02/25 11:55:23;;;;;;;;;;;;;;;19.84;74.73;100406.81;4992684;28;19917;-70
2024/02/25 11:57:49;;;;;;;;;;;;;;;19.99;68.05;100402.41;4993312;28;20320;-68
2024/02/25 12:00:14;;;;;;;;;;;;;;;20.15;69.13;100395.34;4982734;28;19922;-69
2024/02/25 12:02:41;;;;;;;;;;;;;;;20.11;72.14;100394.53;4974598;28;19924;-69
2024/02/25 12:05:08;;;;;;;;;;;;;;;19.92;72.35;100393.69;4993109;28;20392;-69
2024/02/25 12:07:34;;;;;;;;;;;;;;;19.74;73.90;100384.09;4993230;28;19961;-69
2024/02/25 12:09:59;;;;;;;;;;;;;;;19.72;76.55;100383.22;4992558;28;19961;-67
2024/02/25 12:12:24;;;;;;;;;;;;;;;19.78;72.99;100391.06;4993365;28;19928;-69
2024/02/25 12:14:50;;;;;;;;;;;;;;;19.91;71.97;100388.47;4992482;28;19961;-67
2024/02/25 12:17:16;;;;;;;;;;;;;;;19.97;73.11;100386.69;4992818;28;19921;-70
2024/02/25 12:19:42;;;;;;;;;;;;;;;20.12;67.28;100390.13;4975839;28;20028;-68
2024/02/25 12:22:09;;;;;;;;;;;;;;;20.13;68.97;100382.25;4992504;28;20393;-68
2024/02/25 12:24:34;;;;;;;;;;;;;;;20.08;68.19;100378.78;4989516;28;19921;-69